Rechercher aéroport 
image banner adimage banner ad
image banner ad

SBPA - Salgado Filho

Situé à Porto Alegre, Brazil

ICAO - SBPA, IATA - POA

Données fournies par Airmate  

Information générale

Coordonnées: S29°59'38" W51°10'16"
Élévation : 13 feet MSL.
Variation magnétique : -17° East
Voir autres Aéroports à Rio Grande do Sul

Données opérationnelles

Accessible au public
Heure actuelle UTC:
Heure actuelle locale:
Météo
METAR: SBPA 271700Z 03006KT 350V070 8000 SCT030 FEW040TCU OVC100 23/22 Q1004
TAF: TAF SBPA 270900Z 2712/2812 13010KT 7000 SCT009 BKN020 TX28/2716Z TN18/2808Z TEMPO 2717/2720 4000 BR BKN009 BKN020 BECMG 2720/2724 13004KT SCT010 SCT020 TEMPO 2806/2809 4000 BR RMK PEA
Voir NOTAMs / SUP AIP / TFR affectant cet aéroport [VIEW]
Fréquences de communication: [VIEW]

Pistes:

Identifiant RWYQFULongueur (ft)Largeur (ft)SurfaceLDA (ft)
1191°7480138ASP
29271°7480148
286496148UNK

Coordonnées de l'aéroport

Adresse: Porto Alegre Brazil

Autres services d'aviation

Écoles de pilotage

Aerosul

Aerosul

Vue satellite de SBPA